Time;durP1;ratioP1;P1;durP2;ratioP2;P2;SDS_P1;SDS_P2;PMS_P1;PMS_P2;Temp;Humidity;BMP_temperature;BMP_pressure;BME280_temperature;BME280_humidity;BME280_pressure;Samples;Min_cycle;Max_cycle;Signal;HPM_P1;HPM_P2
2023/10/25 00:00:06;;;;;;;15.10;8.20;;;;;;;10.68;68.89;99309.66;78168;1296;3026259;-67
2023/10/25 00:02:33;;;;;;;15.10;8.50;;;;;;;10.64;69.38;99300.33;79594;1295;3013667;-68
2023/10/25 00:05:00;;;;;;;14.90;9.30;;;;;;;10.64;69.35;99295.92;79430;1301;3011503;-69
2023/10/25 00:07:28;;;;;;;15.70;7.90;;;;;;;10.65;69.20;99291.48;78196;1295;3068441;-67
2023/10/25 00:09:54;;;;;;;18.10;8.40;;;;;;;10.69;69.19;99287.73;79644;1301;3018766;-67
2023/10/25 00:12:21;;;;;;;17.30;9.90;;;;;;;10.72;69.10;99292.42;79470;1295;3011585;-67
2023/10/25 00:14:49;;;;;;;14.90;8.60;;;;;;;10.71;69.15;99290.05;78367;1295;3028667;-66
2023/10/25 00:17:15;;;;;;;16.90;8.70;;;;;;;10.68;69.41;99282.52;79691;1298;3013018;-64
2023/10/25 00:19:42;;;;;;;19.20;8.70;;;;;;;10.66;69.49;99265.83;79450;1298;3011708;-64
2023/10/25 00:22:10;;;;;;;18.60;9.20;;;;;;;10.67;69.45;99260.84;78308;1296;3027564;-67
2023/10/25 00:24:36;;;;;;;16.70;9.20;;;;;;;10.69;69.26;99259.70;79585;1294;3013430;-64
2023/10/25 00:27:03;;;;;;;17.00;9.10;;;;;;;10.69;69.48;99256.71;79390;1296;3013290;-66
2023/10/25 00:29:31;;;;;;;16.30;9.50;;;;;;;10.67;69.42;99264.16;78430;1296;3027251;-66
2023/10/25 00:31:57;;;;;;;21.10;9.30;;;;;;;10.66;69.42;99270.41;79720;1296;3013163;-66
2023/10/25 00:34:23;;;;;;;19.30;9.10;;;;;;;10.66;69.52;99273.88;79594;1295;3011670;-65
2023/10/25 00:36:51;;;;;;;15.70;9.40;;;;;;;10.66;69.66;99273.35;78383;1294;3026013;-63
2023/10/25 00:39:18;;;;;;;17.30;9.00;;;;;;;10.68;69.50;99269.59;79411;1295;3013129;-64
2023/10/25 00:41:45;;;;;;;18.30;9.80;;;;;;;10.69;69.32;99265.08;79615;1295;3012067;-63
2023/10/25 00:44:12;;;;;;;19.90;9.60;;;;;;;10.70;69.58;99273.42;78314;1298;3026286;-65
2023/10/25 00:46:39;;;;;;;19.50;9.90;;;;;;;10.69;69.60;99277.35;79736;1298;3013108;-66
2023/10/25 00:49:06;;;;;;;16.80;9.70;;;;;;;10.71;69.66;99280.23;76951;1301;3290076;-64
2023/10/25 00:51:34;;;;;;;18.90;10.10;;;;;;;10.73;69.48;99287.48;78350;1295;3025692;-67
2023/10/25 00:54:02;;;;;;;24.80;10.90;;;;;;;10.73;69.49;99276.39;79487;1301;3012849;-67
2023/10/25 00:56:30;;;;;;;17.10;9.30;;;;;;;10.73;69.56;99267.30;79456;1295;3011459;-65
2023/10/25 00:58:59;;;;;;;18.90;10.00;;;;;;;10.73;69.73;99260.63;78085;1298;3052845;-65
2023/10/25 01:01:27;;;;;;;16.30;7.70;;;;;;;10.75;69.80;99252.83;79624;1295;3014861;-66
2023/10/25 01:03:56;;;;;;;18.90;9.10;;;;;;;11.36;69.39;99248.45;79261;1294;3011499;-66
2023/10/25 01:06:23;;;;;;;18.90;9.10;;;;;;;12.02;68.30;99251.36;79488;1298;3013777;-65
2023/10/25 01:08:50;;;;;;;16.40;8.90;;;;;;;12.19;67.47;99258.42;79618;1298;3011625;-68
2023/10/25 01:11:17;;;;;;;21.60;8.20;;;;;;;12.12;67.49;99249.23;78254;1295;3027697;-65
2023/10/25 01:13:44;;;;;;;16.90;9.40;;;;;;;11.99;67.53;99246.66;79673;1295;3018459;-67
2023/10/25 01:16:10;;;;;;;17.10;9.90;;;;;;;11.85;67.78;99241.30;79539;1296;3011566;-66
2023/10/25 01:18:38;;;;;;;20.20;10.20;;;;;;;11.71;67.44;99236.29;78416;1298;3027346;-68
2023/10/25 01:21:05;;;;;;;17.00;9.70;;;;;;;11.57;68.01;99237.42;79700;1298;3013684;-67
2023/10/25 01:23:31;;;;;;;22.20;10.20;;;;;;;11.45;68.20;99237.32;79639;1295;3011400;-65
2023/10/25 01:25:59;;;;;;;24.30;10.50;;;;;;;11.35;68.58;99237.65;78408;1295;3026124;-66
2023/10/25 01:28:25;;;;;;;22.20;10.60;;;;;;;11.22;68.92;99234.83;79620;1294;3013304;-67
2023/10/25 01:30:52;;;;;;;20.10;10.70;;;;;;;11.12;69.64;99235.86;79725;1294;3013649;-70
2023/10/25 01:33:20;;;;;;;21.40;11.50;;;;;;;11.03;69.97;99236.30;78267;1295;3028247;-67
2023/10/25 01:35:46;;;;;;;22.30;12.10;;;;;;;10.97;70.18;99235.64;79618;1299;3018417;-66
2023/10/25 01:38:13;;;;;;;23.70;11.70;;;;;;;10.94;70.16;99234.58;79410;1298;3013919;-66
2023/10/25 01:40:41;;;;;;;20.00;11.70;;;;;;;10.87;70.78;99235.75;78503;1298;3027328;-67
2023/10/25 01:43:07;;;;;;;23.70;12.80;;;;;;;10.82;71.05;99238.37;79601;1295;3013301;-65
2023/10/25 01:45:34;;;;;;;24.50;12.80;;;;;;;10.79;71.20;99232.60;79775;1296;3011677;-65
2023/10/25 01:48:02;;;;;;;22.80;13.10;;;;;;;10.74;71.25;99235.16;78454;1298;3026410;-64
2023/10/25 01:50:29;;;;;;;31.80;14.70;;;;;;;10.68;71.72;99237.11;79832;1298;3013067;-64
2023/10/25 01:52:55;;;;;;;37.80;14.60;;;;;;;10.59;72.01;99241.41;79598;1294;3011815;-66
2023/10/25 01:55:23;;;;;;;25.60;15.10;;;;;;;10.59;71.94;99244.02;78592;1294;3056423;-65
2023/10/25 01:57:50;;;;;;;29.00;15.50;;;;;;;10.56;71.81;99252.23;79741;1295;3013105;-66
2023/10/25 02:00:16;;;;;;;25.00;11.70;;;;;;;10.59;71.72;99245.64;79572;1294;3011947;-66
2023/10/25 02:02:44;;;;;;;27.00;13.00;;;;;;;11.12;70.66;99237.99;78352;1298;3027536;-66
2023/10/25 02:05:11;;;;;;;24.60;13.00;;;;;;;11.65;69.36;99236.14;79849;1295;3013095;-66
2023/10/25 02:07:39;;;;;;;25.00;13.20;;;;;;;11.77;69.28;99239.05;79656;1295;3013522;-65
2023/10/25 02:10:07;;;;;;;30.20;13.30;;;;;;;11.70;69.39;99239.33;78494;1295;3055600;-65
2023/10/25 02:12:34;;;;;;;31.30;14.80;;;;;;;11.57;69.40;99238.61;79568;1295;3013394;-65
2023/10/25 02:15:00;;;;;;;34.70;16.30;;;;;;;11.41;69.23;99241.63;79641;1295;3011630;-67
2023/10/25 02:17:28;;;;;;;37.10;17.00;;;;;;;11.26;68.97;99242.10;78486;1298;3028845;-66
2023/10/25 02:19:55;;;;;;;33.00;17.60;;;;;;;11.15;68.90;99239.37;79792;1298;3013385;-64
2023/10/25 02:22:21;;;;;;;32.30;18.60;;;;;;;11.01;69.11;99238.54;79641;1295;3011396;-67
2023/10/25 02:24:49;;;;;;;36.40;19.00;;;;;;;10.91;69.39;99238.31;78453;1295;3026698;-66
2023/10/25 02:27:16;;;;;;;35.90;19.00;;;;;;;10.85;69.39;99233.41;79608;1295;3012797;-68
2023/10/25 02:29:44;;;;;;;35.50;19.00;;;;;;;10.77;69.59;99231.85;79663;1295;3011496;-66
2023/10/25 02:32:11;;;;;;;34.00;18.30;;;;;;;10.64;69.71;99236.34;78436;1298;3050784;-65
2023/10/25 02:34:38;;;;;;;39.50;22.20;;;;;;;10.53;69.98;99225.64;79740;1295;3013211;-65
2023/10/25 02:37:05;;;;;;;44.90;25.80;;;;;;;10.39;70.25;99218.65;79690;1294;3012100;-68
2023/10/25 02:39:32;;;;;;;44.50;28.40;;;;;;;10.32;70.14;99213.36;78159;1294;3026136;-68
2023/10/25 02:41:59;;;;;;;48.60;28.90;;;;;;;10.18;70.58;99215.05;79660;1295;3013019;-64
2023/10/25 02:44:26;;;;;;;50.80;31.20;;;;;;;10.07;70.88;99215.94;79663;1295;3013001;-66
2023/10/25 02:46:57;;;;;;;46.80;29.10;;;;;;;9.99;71.23;99222.73;78432;1295;3026521;-64
2023/10/25 02:49:24;;;;;;;43.50;29.80;;;;;;;9.92;71.53;99224.94;79622;1298;3011527;-66
2023/10/25 02:51:53;;;;;;;51.20;30.00;;;;;;;9.92;71.63;99228.05;78413;1298;3070282;-64
2023/10/25 02:54:19;;;;;;;46.00;28.00;;;;;;;9.90;71.44;99232.88;79578;1294;3013617;-67
2023/10/25 02:56:46;;;;;;;45.10;27.40;;;;;;;9.87;71.75;99239.36;79538;1295;3013153;-63
2023/10/25 02:59:14;;;;;;;45.00;23.70;;;;;;;9.83;72.13;99244.69;78401;1295;3027552;-67
2023/10/25 03:01:40;;;;;;;39.00;23.40;;;;;;;9.81;72.20;99247.45;79561;1298;3018881;-68
2023/10/25 03:04:07;;;;;;;42.10;22.30;;;;;;;9.79;72.50;99247.06;79541;1298;3011521;-64
2023/10/25 03:06:35;;;;;;;37.90;21.10;;;;;;;9.80;72.49;99247.52;78426;1296;3027352;-66
2023/10/25 03:09:02;;;;;;;28.60;15.90;;;;;;;9.80;72.73;99249.07;79601;1295;3012845;-67
2023/10/25 03:11:28;;;;;;;34.10;16.20;;;;;;;10.37;71.68;99243.13;79645;1294;3011629;-66
2023/10/25 03:13:56;;;;;;;30.40;15.80;;;;;;;11.03;69.89;99235.20;78367;1296;3025990;-69
2023/10/25 03:16:22;;;;;;;26.50;14.50;;;;;;;11.19;68.83;99228.20;79697;1298;3013313;-67
2023/10/25 03:18:49;;;;;;;28.80;15.00;;;;;;;11.12;68.71;99229.52;79638;1298;3011461;-67
2023/10/25 03:21:17;;;;;;;37.20;16.60;;;;;;;10.98;68.89;99223.98;78423;1294;3028368;-66
2023/10/25 03:23:44;;;;;;;33.60;16.90;;;;;;;10.82;69.26;99215.59;79605;1295;3013401;-65
2023/10/25 03:26:11;;;;;;;37.10;20.10;;;;;;;10.70;69.60;99215.83;79532;1294;3011598;-68
2023/10/25 03:28:39;;;;;;;46.60;26.90;;;;;;;10.58;69.70;99209.61;78318;1295;3052146;-67
2023/10/25 03:31:09;;;;;;;47.70;30.80;;;;;;;10.43;70.28;99221.23;79709;1298;3013209;-70
2023/10/25 03:33:37;;;;;;;54.60;31.80;;;;;;;10.24;70.83;99228.35;79048;1295;3011538;-64
2023/10/25 03:36:04;;;;;;;48.60;29.90;;;;;;;10.12;71.49;99229.77;79660;1294;3012977;-66
2023/10/25 03:38:31;;;;;;;46.30;29.00;;;;;;;10.04;72.05;99224.35;79550;1298;3013195;-67
2023/10/25 03:41:00;;;;;;;47.20;26.80;;;;;;;9.99;72.23;99225.20;78465;1294;3026056;-65
2023/10/25 03:43:26;;;;;;;42.50;26.00;;;;;;;9.92;72.73;99226.33;79623;1295;3012841;-66
2023/10/25 03:45:54;;;;;;;54.80;39.70;;;;;;;9.87;72.97;99225.55;79611;1298;3011898;-67
2023/10/25 03:48:22;;;;;;;55.00;41.20;;;;;;;9.83;72.92;99221.45;78336;1298;3052383;-66
2023/10/25 03:50:50;;;;;;;51.90;36.50;;;;;;;9.77;73.15;99223.58;79658;1295;3011627;-66
2023/10/25 03:53:17;;;;;;;45.20;30.80;;;;;;;9.72;73.30;99225.40;79615;1294;3013176;-66
2023/10/25 03:55:55;;;;;;;45.00;27.80;;;;;;;9.69;73.21;99220.02;78478;1298;3057757;-64
2023/10/25 03:58:23;;;;;;;42.40;24.20;;;;;;;9.64;73.20;99216.83;78473;1296;3049295;-68
2023/10/25 04:01:03;;;;;;;43.80;28.20;;;;;;;9.63;73.13;99223.00;79663;1295;3013594;-66
2023/10/25 04:03:32;;;;;;;45.80;30.70;;;;;;;9.62;73.08;99226.94;78429;1298;3053202;-65
2023/10/25 04:05:58;;;;;;;47.20;29.50;;;;;;;9.56;73.30;99214.34;79495;1295;3019109;-66
2023/10/25 04:08:25;;;;;;;34.50;21.10;;;;;;;9.50;73.79;99211.70;79505;1297;3013057;-65
2023/10/25 04:10:53;;;;;;;40.60;21.30;;;;;;;10.03;72.88;99210.38;78540;1297;3026430;-66
2023/10/25 04:13:20;;;;;;;40.20;21.50;;;;;;;10.61;70.93;99208.19;79808;1295;3013207;-65
2023/10/25 04:15:58;;;;;;;40.50;23.60;;;;;;;10.67;70.53;99208.29;79574;1295;3011728;-66
2023/10/25 04:18:27;;;;;;;43.40;23.60;;;;;;;10.55;70.90;99211.02;78455;1295;3053782;-66
2023/10/25 04:20:54;;;;;;;39.60;23.60;;;;;;;10.38;70.94;99211.02;79808;1295;3013442;-67
2023/10/25 04:23:21;;;;;;;46.90;28.70;;;;;;;10.21;71.12;99209.48;79764;1298;3011656;-64
2023/10/25 04:25:49;;;;;;;41.40;28.40;;;;;;;10.08;71.56;99202.03;78361;1297;3055883;-66
2023/10/25 04:28:16;;;;;;;40.60;26.90;;;;;;;9.96;72.02;99208.05;79740;1295;3013398;-67
2023/10/25 04:30:43;;;;;;;37.80;22.00;;;;;;;9.84;72.65;99202.98;79735;1295;3011834;-67
2023/10/25 04:33:11;;;;;;;35.60;19.90;;;;;;;9.80;72.79;99209.90;78334;1298;3051980;-66
2023/10/25 04:35:37;;;;;;;39.40;20.10;;;;;;;9.73;73.05;99216.94;79710;1296;3018639;-66
2023/10/25 04:38:04;;;;;;;35.80;18.80;;;;;;;9.66;73.85;99211.82;79675;1298;3013221;-69
2023/10/25 04:40:32;;;;;;;28.70;16.40;;;;;;;9.59;74.11;99210.98;78474;1298;3026472;-65
2023/10/25 04:42:58;;;;;;;34.60;15.90;;;;;;;9.54;74.61;99214.96;79788;1294;3012989;-67
2023/10/25 04:45:25;;;;;;;24.00;12.50;;;;;;;9.49;75.33;99217.55;79722;1296;3011877;-67
2023/10/25 04:47:53;;;;;;;24.90;14.30;;;;;;;9.99;74.51;99218.15;78572;1294;3026859;-65
2023/10/25 04:50:20;;;;;;;27.20;14.50;;;;;;;10.53;72.86;99218.83;79626;1294;3015250;-67
2023/10/25 04:52:46;;;;;;;26.60;14.00;;;;;;;10.67;72.37;99226.50;79688;1298;3011789;-65
2023/10/25 04:55:14;;;;;;;25.90;14.40;;;;;;;10.63;72.55;99230.30;78460;1295;3026435;-66
2023/10/25 04:57:41;;;;;;;28.10;15.80;;;;;;;10.41;73.00;99238.31;79865;1295;3013557;-65
2023/10/25 05:00:09;;;;;;;33.20;17.50;;;;;;;10.29;73.14;99243.80;79687;1298;3013154;-67
2023/10/25 05:02:40;;;;;;;31.00;17.10;;;;;;;10.18;73.52;99242.18;78695;1298;3052018;-68
2023/10/25 05:05:07;;;;;;;32.10;17.30;;;;;;;10.08;73.92;99244.40;79930;1298;3011532;-64
2023/10/25 05:07:37;;;;;;;31.80;16.50;;;;;;;10.00;74.00;99242.60;78337;1310;3028688;-65
2023/10/25 05:10:05;;;;;;;27.80;14.90;;;;;;;9.92;74.22;99242.04;79661;1294;3011599;-66
2023/10/25 05:12:41;;;;;;;26.50;14.30;;;;;;;9.82;74.62;99239.20;79152;1297;3013409;-64
2023/10/25 05:15:17;;;;;;;29.10;15.50;;;;;;;9.79;74.75;99242.33;79063;1298;3011779;-65
2023/10/25 05:17:47;;;;;;;30.00;15.40;;;;;;;9.79;74.87;99251.94;79450;1295;3013953;-68
2023/10/25 05:20:14;;;;;;;29.00;15.60;;;;;;;9.82;74.56;99251.42;80129;1298;3012565;-71
2023/10/25 05:22:42;;;;;;;20.80;10.80;;;;;;;9.84;74.29;99248.15;79819;1295;3011907;-71
2023/10/25 05:25:11;;;;;;;22.00;11.10;;;;;;;10.41;72.87;99253.88;78575;1298;3051405;-69
2023/10/25 05:27:38;;;;;;;21.00;11.20;;;;;;;11.01;70.58;99253.55;79806;1298;3012920;-68
2023/10/25 05:30:05;;;;;;;18.90;9.80;;;;;;;11.14;69.47;99251.83;79888;1295;3011842;-69
2023/10/25 05:32:34;;;;;;;22.40;11.10;;;;;;;11.04;69.18;99255.50;78552;1295;3057901;-69
2023/10/25 05:35:02;;;;;;;21.10;10.90;;;;;;;10.95;69.20;99248.05;79776;1298;3012790;-66
2023/10/25 05:37:32;;;;;;;21.80;11.40;;;;;;;10.86;69.57;99255.05;79453;1294;3011513;-68
2023/10/25 05:39:59;;;;;;;22.20;11.40;;;;;;;10.78;69.89;99256.30;79798;1298;3014041;-68
2023/10/25 05:42:27;;;;;;;28.40;12.40;;;;;;;10.70;70.05;99259.80;79614;1298;3011726;-70
2023/10/25 05:44:55;;;;;;;21.40;11.50;;;;;;;10.50;70.87;99259.81;78481;1296;3067989;-66
2023/10/25 05:47:25;;;;;;;20.10;10.40;;;;;;;10.50;70.90;99257.21;79705;1296;3014025;-68
2023/10/25 05:49:53;;;;;;;23.00;11.60;;;;;;;10.48;70.75;99253.13;78437;1295;3051287;-71
2023/10/25 05:52:20;;;;;;;22.10;11.00;;;;;;;10.49;71.04;99253.08;79911;1294;3018643;-71
2023/10/25 05:54:47;;;;;;;18.00;11.20;;;;;;;10.48;70.86;99254.00;79836;1295;3011510;-69
2023/10/25 05:57:15;;;;;;;20.00;11.20;;;;;;;10.46;71.26;99254.86;78527;1298;3026476;-71
2023/10/25 05:59:42;;;;;;;18.90;10.30;;;;;;;10.48;71.26;99257.87;79771;1298;3013191;-72
2023/10/25 06:02:10;;;;;;;25.50;11.20;;;;;;;10.49;71.47;99249.58;79561;1295;3011620;-71
2023/10/25 06:04:38;;;;;;;24.80;11.10;;;;;;;10.48;71.58;99245.30;78609;1296;3049414;-68
2023/10/25 06:07:06;;;;;;;24.90;11.30;;;;;;;10.49;71.42;99244.88;79804;1295;3012861;-75
2023/10/25 06:09:33;;;;;;;22.90;11.60;;;;;;;10.48;71.46;99240.71;79720;1295;3011849;-72
2023/10/25 06:12:01;;;;;;;21.90;11.50;;;;;;;10.42;72.15;99241.41;78478;1298;3052410;-71
2023/10/25 06:14:28;;;;;;;16.80;7.90;;;;;;;10.37;72.45;99239.96;79650;1295;3012641;-70
2023/10/25 06:16:55;;;;;;;21.90;10.60;;;;;;;10.92;71.62;99232.58;79786;1296;3012044;-69
2023/10/25 06:19:23;;;;;;;19.90;10.40;;;;;;;11.50;69.84;99231.70;78373;1298;3049651;-68
2023/10/25 06:21:50;;;;;;;24.20;11.20;;;;;;;11.62;68.88;99228.61;79668;1295;3012866;-69
2023/10/25 06:24:16;;;;;;;24.80;12.10;;;;;;;11.55;69.45;99231.05;79846;1295;3011775;-69
2023/10/25 06:26:44;;;;;;;20.60;11.20;;;;;;;11.44;69.69;99230.92;78638;1295;3026955;-71
2023/10/25 06:29:11;;;;;;;24.90;13.10;;;;;;;11.32;70.31;99227.51;79911;1298;3018415;-72
2023/10/25 06:31:37;;;;;;;22.10;13.00;;;;;;;11.27;70.49;99227.69;79806;1296;3013250;-68
2023/10/25 06:34:05;;;;;;;27.70;13.00;;;;;;;11.16;70.50;99230.14;78681;1298;3026088;-69
2023/10/25 06:36:33;;;;;;;22.50;11.50;;;;;;;11.04;71.21;99231.83;79711;1298;3018627;-70
2023/10/25 06:39:04;;;;;;;22.30;11.70;;;;;;;11.01;70.97;99224.66;79839;1296;3012002;-71
2023/10/25 06:41:32;;;;;;;19.60;11.60;;;;;;;10.94;71.36;99219.36;78567;1295;3053085;-71
2023/10/25 06:44:01;;;;;;;23.20;11.70;;;;;;;10.86;71.88;99216.70;79686;1298;3013491;-68
2023/10/25 06:46:28;;;;;;;19.50;10.40;;;;;;;10.83;72.41;99216.56;79785;1293;3011288;-69
2023/10/25 06:48:58;;;;;;;18.00;10.60;;;;;;;10.81;72.54;99217.38;78478;1298;3048923;-67
2023/10/25 06:51:25;;;;;;;22.00;11.60;;;;;;;10.82;72.99;99216.77;79760;1298;3015225;-69
2023/10/25 06:53:52;;;;;;;20.00;10.70;;;;;;;10.85;73.44;99216.44;79710;1296;3011652;-70
2023/10/25 06:56:20;;;;;;;17.70;10.30;;;;;;;10.85;73.37;99216.61;78527;1298;3053591;-74
2023/10/25 06:58:48;;;;;;;18.40;7.80;;;;;;;10.89;73.12;99220.01;79938;1296;3018347;-73
2023/10/25 07:01:18;;;;;;;18.60;9.60;;;;;;;11.48;71.87;99220.63;79526;1294;3011834;-71
2023/10/25 07:03:47;;;;;;;19.60;10.10;;;;;;;12.21;69.84;99214.03;78406;1298;3049001;-72
2023/10/25 07:06:15;;;;;;;16.10;9.30;;;;;;;12.30;68.69;99216.92;79731;1298;3013744;-73
2023/10/25 07:08:48;;;;;;;24.30;9.80;;;;;;;11.99;67.71;99218.52;79478;1297;3012948;-68
2023/10/25 07:11:14;;;;;;;18.70;9.50;;;;;;;11.81;68.34;99209.46;79681;1295;3011625;-69
2023/10/25 07:13:43;;;;;;;21.20;9.90;;;;;;;11.56;68.93;99207.27;79313;1296;3011837;-70
2023/10/25 07:16:09;;;;;;;22.20;10.50;;;;;;;11.51;69.06;99204.48;79763;1298;3013286;-74
2023/10/25 07:18:36;;;;;;;23.60;10.70;;;;;;;11.39;69.08;99205.98;79606;1295;3011467;-72
2023/10/25 07:21:04;;;;;;;25.50;11.30;;;;;;;11.32;69.58;99202.98;78510;1295;3025983;-75
2023/10/25 07:23:30;;;;;;;22.90;11.00;;;;;;;11.22;70.02;99197.69;79790;1296;3013380;-73
2023/10/25 07:25:59;;;;;;;21.20;10.00;;;;;;;11.23;70.06;99196.77;79780;1297;3013497;-72
2023/10/25 07:28:27;;;;;;;23.20;10.90;;;;;;;11.27;70.33;99197.54;78468;1298;3053303;-70
2023/10/25 07:30:53;;;;;;;19.50;11.00;;;;;;;11.11;70.30;99197.03;79851;1294;3012810;-70
2023/10/25 07:33:21;;;;;;;20.80;10.60;;;;;;;11.05;70.47;99192.54;79728;1295;3011638;-74
2023/10/25 07:35:48;;;;;;;24.10;11.40;;;;;;;11.03;70.93;99189.45;78633;1298;3047640;-67
2023/10/25 07:38:15;;;;;;;26.10;10.70;;;;;;;10.86;71.64;99187.61;79735;1296;3018494;-68
2023/10/25 07:40:43;;;;;;;23.80;11.30;;;;;;;10.87;71.66;99179.15;79604;1295;3011846;-66
2023/10/25 07:43:10;;;;;;;21.50;10.10;;;;;;;10.91;71.90;99175.38;78622;1298;3052860;-67
2023/10/25 07:45:37;;;;;;;19.90;9.90;;;;;;;10.93;72.03;99173.86;79793;1295;3019075;-66
2023/10/25 07:48:04;;;;;;;21.20;10.60;;;;;;;10.94;72.20;99175.35;79766;1298;3011949;-63
2023/10/25 07:50:34;;;;;;;19.40;10.20;;;;;;;10.93;72.23;99164.92;78703;1298;3049638;-69
2023/10/25 07:53:01;;;;;;;24.30;10.40;;;;;;;11.05;71.97;99160.59;79968;1295;3012835;-67
2023/10/25 07:55:27;;;;;;;13.50;7.80;;;;;;;11.07;73.20;99160.60;79736;1295;3013584;-65
2023/10/25 07:57:55;;;;;;;18.70;8.80;;;;;;;11.70;71.44;99159.47;78612;1295;3052422;-66
2023/10/25 08:00:22;;;;;;;15.40;8.90;;;;;;;12.42;69.26;99156.49;79975;1298;3012863;-67
2023/10/25 08:02:49;;;;;;;18.30;9.20;;;;;;;12.62;68.05;99152.90;79853;1298;3011851;-68
2023/10/25 08:05:17;;;;;;;19.40;8.70;;;;;;;12.52;68.48;99151.19;78464;1296;3026724;-66
2023/10/25 08:07:45;;;;;;;23.00;10.70;;;;;;;12.37;68.21;99145.45;79754;1295;3012869;-67
2023/10/25 08:10:12;;;;;;;19.00;10.60;;;;;;;12.21;69.14;99143.27;79665;1298;3011856;-69
2023/10/25 08:12:40;;;;;;;22.60;11.30;;;;;;;12.08;69.79;99141.08;78546;1298;3053058;-68
2023/10/25 08:15:07;;;;;;;17.70;10.20;;;;;;;11.96;70.41;99132.41;79517;1295;3013140;-65
2023/10/25 08:17:34;;;;;;;20.70;10.90;;;;;;;11.97;70.53;99129.02;79622;1295;3012990;-64
2023/10/25 08:20:04;;;;;;;16.30;10.00;;;;;;;11.95;71.11;99128.81;78411;1298;3049268;-68
2023/10/25 08:22:33;;;;;;;22.10;11.20;;;;;;;11.97;71.01;99131.67;79504;1296;3011708;-68
2023/10/25 08:25:02;;;;;;;20.30;9.80;;;;;;;11.95;71.90;99134.95;78379;1298;3026404;-69
2023/10/25 08:27:28;;;;;;;22.30;11.90;;;;;;;11.89;72.22;99131.14;79868;1306;3012601;-67
2023/10/25 08:29:56;;;;;;;26.00;11.50;;;;;;;11.88;71.95;99117.00;79641;1298;3013468;-69
2023/10/25 08:32:23;;;;;;;21.00;11.10;;;;;;;11.89;72.33;99114.25;78621;1298;3052686;-69
2023/10/25 08:34:50;;;;;;;19.80;11.10;;;;;;;11.92;72.24;99107.61;79764;1298;3013087;-69
2023/10/25 08:37:17;;;;;;;17.00;8.20;;;;;;;11.93;72.87;99108.17;79738;1298;3014285;-67
2023/10/25 08:39:45;;;;;;;16.70;8.80;;;;;;;12.50;71.77;99103.61;78407;1295;3026353;-64
2023/10/25 08:42:12;;;;;;;16.20;8.40;;;;;;;13.05;69.13;99100.88;79750;1298;3013001;-68
2023/10/25 08:44:40;;;;;;;15.50;8.30;;;;;;;13.19;68.70;99095.01;79646;1295;3013057;-69
2023/10/25 08:47:09;;;;;;;15.30;8.90;;;;;;;13.17;68.26;99093.59;78353;1295;3051015;-65
2023/10/25 08:49:36;;;;;;;18.20;9.60;;;;;;;13.01;69.07;99094.65;79668;1298;3013956;-67
2023/10/25 08:52:03;;;;;;;16.70;9.60;;;;;;;12.84;69.94;99089.10;79657;1298;3011959;-68
2023/10/25 08:54:33;;;;;;;16.20;9.20;;;;;;;12.69;70.37;99087.38;78459;1298;3051528;-69
2023/10/25 08:56:59;;;;;;;18.80;10.10;;;;;;;12.53;71.23;99080.83;79635;1298;3013522;-69
2023/10/25 08:59:26;;;;;;;18.30;9.90;;;;;;;12.40;71.49;99078.33;79673;1298;3012731;-65
2023/10/25 09:01:54;;;;;;;22.00;9.90;;;;;;;12.31;71.57;99075.10;78551;1295;3050198;-69
2023/10/25 09:04:20;;;;;;;18.70;9.40;;;;;;;12.24;71.78;99072.46;79715;1296;3012985;-68
2023/10/25 09:06:47;;;;;;;28.40;16.50;;;;;;;12.16;72.37;99071.64;79602;1298;3011669;-70
2023/10/25 09:09:15;;;;;;;24.80;13.40;;;;;;;12.14;72.96;99076.70;78458;1299;3026374;-70
2023/10/25 09:11:45;;;;;;;17.30;9.80;;;;;;;12.05;73.18;99074.20;79797;1298;3019892;-68
2023/10/25 09:14:14;;;;;;;16.30;10.20;;;;;;;12.09;73.23;99070.05;79237;1295;3011716;-68
2023/10/25 09:16:42;;;;;;;15.20;7.50;;;;;;;12.07;74.29;99068.77;79873;1295;3012783;-69
2023/10/25 09:19:09;;;;;;;16.20;8.30;;;;;;;12.66;74.01;99069.86;79780;1296;3011933;-69
2023/10/25 09:21:37;;;;;;;15.00;7.80;;;;;;;13.21;72.15;99070.31;78599;1298;3050466;-70
2023/10/25 09:24:07;;;;;;;16.60;8.50;;;;;;;13.30;71.13;99071.00;79665;1295;3013558;-70
2023/10/25 09:26:36;;;;;;;19.50;9.30;;;;;;;13.08;70.70;99070.05;78581;1298;3053125;-69
2023/10/25 09:29:03;;;;;;;23.00;10.70;;;;;;;12.97;71.62;99070.33;79979;1295;3012954;-72
2023/10/25 09:31:31;;;;;;;18.20;9.50;;;;;;;12.72;72.46;99070.29;79926;1298;3013240;-70
2023/10/25 09:33:59;;;;;;;21.10;9.70;;;;;;;12.56;73.15;99069.25;78443;1296;3057721;-70
2023/10/25 09:36:28;;;;;;;21.80;10.60;;;;;;;12.37;74.51;99064.33;79731;1296;3013825;-72
2023/10/25 09:38:55;;;;;;;26.40;13.50;;;;;;;12.29;75.04;99062.79;79658;1298;3011777;-72
2023/10/25 09:41:24;;;;;;;22.40;12.80;;;;;;;12.20;75.98;99057.84;78666;1298;3052250;-72
2023/10/25 09:43:51;;;;;;;17.20;8.80;;;;;;;12.11;76.98;99061.14;79895;1298;3014126;-70
2023/10/25 09:46:20;;;;;;;16.60;8.90;;;;;;;12.53;76.74;99061.40;79719;1296;3013128;-70
2023/10/25 09:49:04;;;;;;;21.50;10.10;;;;;;;13.06;74.94;99056.81;78536;1298;3055494;-70
2023/10/25 09:51:33;;;;;;;16.20;9.40;;;;;;;13.13;74.68;99052.05;78500;1298;3049951;-71
2023/10/25 09:54:09;;;;;;;20.40;10.60;;;;;;;12.91;75.39;99047.95;79761;1298;3012875;-70
2023/10/25 09:56:37;;;;;;;21.00;11.20;;;;;;;12.63;76.36;99047.77;78476;1300;3050525;-71
2023/10/25 09:59:07;;;;;;;22.90;12.20;;;;;;;12.46;77.27;99050.65;79692;1298;3019265;-70
2023/10/25 10:01:35;;;;;;;24.10;12.40;;;;;;;12.31;77.89;99050.86;78542;1298;3069137;-70
2023/10/25 10:04:10;;;;;;;20.90;11.20;;;;;;;12.18;78.77;99046.25;79746;1298;3018966;-71
2023/10/25 10:06:57;;;;;;;15.30;7.90;;;;;;;12.09;79.50;99038.67;78722;1294;3048908;-68
2023/10/25 10:09:32;;;;;;;22.60;10.40;;;;;;;12.65;78.22;99040.62;78495;1296;3053164;-71
2023/10/25 10:12:05;;;;;;;27.90;13.30;;;;;;;13.17;76.69;99038.91;79227;1295;3011665;-69
2023/10/25 10:14:36;;;;;;;33.80;15.00;;;;;;;13.17;76.62;99031.87;79713;1294;3011914;-72
2023/10/25 10:17:14;;;;;;;38.00;15.80;;;;;;;13.02;76.59;99031.30;78557;1298;3051651;-71
2023/10/25 10:19:43;;;;;;;32.30;13.90;;;;;;;12.86;77.28;99031.42;78637;1295;3051408;-71
2023/10/25 10:22:16;;;;;;;19.90;10.90;;;;;;;12.62;78.86;99027.50;79791;1296;3013482;-71
2023/10/25 10:24:49;;;;;;;19.20;10.50;;;;;;;12.49;79.40;99027.79;78331;1295;3055938;-70
2023/10/25 10:27:17;;;;;;;22.30;11.70;;;;;;;12.37;80.45;99025.81;79749;1295;3011451;-71
2023/10/25 10:29:48;;;;;;;22.50;8.80;;;;;;;12.27;81.20;99020.80;78591;1297;3052262;-71
2023/10/25 10:32:15;;;;;;;26.90;12.40;;;;;;;12.76;80.30;99015.89;79679;1298;3013874;-71
2023/10/25 10:34:45;;;;;;;21.50;10.50;;;;;;;13.24;78.41;99010.58;79185;1298;3011606;-69
2023/10/25 10:37:25;;;;;;;19.90;10.10;;;;;;;13.23;78.10;99004.35;79883;1300;3013655;-70
2023/10/25 10:39:56;;;;;;;19.80;9.30;;;;;;;13.12;78.58;99004.15;78396;1300;3052887;-70
2023/10/25 10:42:28;;;;;;;21.00;9.90;;;;;;;12.92;79.19;99003.57;79633;1298;3011526;-71
2023/10/25 10:45:03;;;;;;;23.30;10.40;;;;;;;12.67;80.21;99001.46;78510;1298;3049976;-69
2023/10/25 10:47:46;;;;;;;22.90;10.80;;;;;;;12.49;81.24;99003.18;78583;1298;3052173;-70
2023/10/25 10:50:18;;;;;;;13.70;7.80;;;;;;;12.31;82.67;99005.59;78410;1298;3049752;-70
2023/10/25 10:52:46;;;;;;;21.80;9.20;;;;;;;12.77;81.91;99003.02;79707;1296;3011879;-69
2023/10/25 10:55:15;;;;;;;16.50;8.00;;;;;;;13.27;79.83;98996.80;78347;1302;3053842;-69
2023/10/25 10:57:42;;;;;;;17.80;8.80;;;;;;;13.33;79.10;99002.54;79629;1302;3013824;-73
2023/10/25 11:00:10;;;;;;;12.60;7.90;;;;;;;13.11;79.39;99000.90;79519;1294;3013009;-72
2023/10/25 11:02:38;;;;;;;14.10;7.70;;;;;;;12.86;80.00;98997.52;78397;1298;3049918;-69
2023/10/25 11:05:05;;;;;;;17.80;8.80;;;;;;;12.67;81.06;98997.57;79600;1302;3018623;-73
2023/10/25 11:07:33;;;;;;;15.10;8.10;;;;;;;12.53;81.73;98993.73;79626;1296;3013801;-71